Time;durP1;ratioP1;P1;durP2;ratioP2;P2;SDS_P1;SDS_P2;PMS_P1;PMS_P2;Temp;Humidity;BMP_temperature;BMP_pressure;BME280_temperature;BME280_humidity;BME280_pressure;Samples;Min_cycle;Max_cycle;Signal;HPM_P1;HPM_P2
2022/11/23 00:01:26;;;;;;;31.50;13.25;;;4.20;99.90;;;;;;5024428;28;20046;-62
2022/11/23 00:03:56;;;;;;;29.75;14.27;;;4.10;99.90;;;;;;5033284;28;20045;-63
2022/11/23 00:06:25;;;;;;;31.13;15.18;;;4.10;99.90;;;;;;5024831;28;20072;-62
2022/11/23 00:08:53;;;;;;;24.92;14.25;;;4.00;99.90;;;;;;5024238;28;20041;-62
2022/11/23 00:11:23;;;;;;;29.98;14.02;;;4.00;99.90;;;;;;5005242;28;20057;-62
2022/11/23 00:13:51;;;;;;;27.30;14.25;;;3.90;99.90;;;;;;5008707;28;20046;-63
2022/11/23 00:16:24;;;;;;;29.73;13.77;;;4.00;99.90;;;;;;5005249;28;20061;-65
2022/11/23 00:18:57;;;;;;;30.33;13.55;;;3.90;99.90;;;;;;5030561;28;20053;-63
2022/11/23 00:21:27;;;;;;;26.75;13.98;;;3.90;99.90;;;;;;5025136;28;20490;-72
2022/11/23 00:23:56;;;;;;;29.35;12.95;;;3.90;99.90;;;;;;5018979;28;20050;-64
2022/11/23 00:26:25;;;;;;;26.50;13.75;;;3.80;99.90;;;;;;5005408;28;20045;-62
2022/11/23 00:28:53;;;;;;;32.07;15.33;;;3.80;99.90;;;;;;5018387;28;20060;-63
2022/11/23 00:31:21;;;;;;;26.00;14.68;;;3.80;99.90;;;;;;5026779;28;20302;-65
2022/11/23 00:33:51;;;;;;;26.00;14.43;;;3.90;99.90;;;;;;5027273;28;20056;-63
2022/11/23 00:36:19;;;;;;;31.48;15.25;;;3.90;99.90;;;;;;5026746;28;20041;-72
2022/11/23 00:38:48;;;;;;;31.30;14.27;;;4.00;99.90;;;;;;5022701;28;20056;-66
2022/11/23 00:41:22;;;;;;;26.17;13.50;;;4.00;99.90;;;;;;5020935;28;20478;-64
2022/11/23 00:43:50;;;;;;;23.92;13.10;;;4.20;99.90;;;;;;5018421;28;20056;-62
2022/11/23 00:46:19;;;;;;;29.75;14.10;;;4.20;99.90;;;;;;5025068;28;20045;-64
2022/11/23 00:48:49;;;;;;;25.23;12.73;;;4.30;99.90;;;;;;5030710;28;20045;-62
2022/11/23 00:51:23;;;;;;;28.58;12.93;;;4.30;99.90;;;;;;5039676;28;20516;-62
2022/11/23 00:53:51;;;;;;;30.48;12.57;;;4.40;99.90;;;;;;5025073;28;20046;-66
2022/11/23 00:56:19;;;;;;;29.95;13.85;;;4.50;99.90;;;;;;5008100;28;20053;-65
2022/11/23 00:58:49;;;;;;;33.95;13.85;;;4.50;99.90;;;;;;5035597;28;20037;-62
2022/11/23 01:01:19;;;;;;;28.23;14.73;;;4.60;99.90;;;;;;5029139;28;20045;-63
2022/11/23 01:03:48;;;;;;;;;;;4.60;99.90;;;;;;5032607;28;20049;-65
2022/11/23 01:06:21;;;;;;;27.73;12.70;;;4.80;99.90;;;;;;5005304;28;19921;-63
2022/11/23 01:08:54;;;;;;;28.83;12.48;;;4.80;99.90;;;;;;5040714;28;20032;-63
2022/11/23 01:11:24;;;;;;;28.25;12.43;;;4.80;99.90;;;;;;5021784;28;20057;-62
2022/11/23 01:13:53;;;;;;;28.98;13.18;;;4.90;99.90;;;;;;5029907;28;20420;-63
2022/11/23 01:16:24;;;;;;;25.13;11.85;;;4.90;99.90;;;;;;5031580;28;20064;-63
2022/11/23 01:19:04;;;;;;;32.35;12.82;;;5.00;99.90;;;;;;5028841;28;20034;-68
2022/11/23 01:21:32;;;;;;;25.17;12.30;;;4.90;99.90;;;;;;5030474;28;20053;-63
2022/11/23 01:24:07;;;;;;;26.83;12.40;;;5.00;99.90;;;;;;5024670;28;20041;-66
2022/11/23 01:26:38;;;;;;;21.77;11.82;;;5.00;99.90;;;;;;5028458;28;20053;-62
2022/11/23 01:29:06;;;;;;;19.65;10.02;;;5.10;99.90;;;;;;5027548;28;20259;-62
2022/11/23 01:31:37;;;;;;;21.55;11.00;;;5.10;99.90;;;;;;5023119;28;20049;-63
2022/11/23 01:34:14;;;;;;;20.95;10.75;;;5.10;99.90;;;;;;5035233;28;20034;-63
2022/11/23 01:36:43;;;;;;;23.63;11.02;;;5.10;99.90;;;;;;5028856;28;20064;-63
2022/11/23 01:39:11;;;;;;;22.70;11.60;;;5.10;99.90;;;;;;5025868;28;20048;-63
2022/11/23 01:41:40;;;;;;;21.85;10.60;;;5.10;99.90;;;;;;5026822;28;20057;-63
2022/11/23 01:44:38;;;;;;;;;;;5.10;99.90;;;;;;5030834;28;20037;-63
2022/11/23 01:47:07;;;;;;;23.92;10.63;;;5.10;99.90;;;;;;5022076;28;19928;-62
2022/11/23 01:49:43;;;;;;;22.08;10.98;;;5.10;99.90;;;;;;5029551;28;20041;-63
2022/11/23 01:52:30;;;;;;;22.70;10.40;;;5.10;99.90;;;;;;5009873;28;20066;-64
2022/11/23 01:54:58;;;;;;;19.63;10.10;;;5.10;99.90;;;;;;5029082;28;20049;-63
2022/11/23 01:57:37;;;;;;;25.10;9.50;;;5.10;99.90;;;;;;5009606;28;20058;-63
2022/11/23 02:00:07;;;;;;;20.55;9.35;;;5.10;99.90;;;;;;5009546;28;20046;-64
2022/11/23 02:02:46;;;;;;;24.60;10.30;;;5.10;99.90;;;;;;5032986;28;20044;-64
2022/11/23 02:05:17;;;;;;;24.08;11.10;;;5.10;99.90;;;;;;5029339;28;20064;-63
2022/11/23 02:07:48;;;;;;;21.02;10.52;;;5.10;99.90;;;;;;5030304;28;20049;-63
2022/11/23 02:10:17;;;;;;;23.75;9.95;;;5.10;99.90;;;;;;5019433;28;20042;-68
2022/11/23 02:12:45;;;;;;;19.55;11.13;;;5.10;99.90;;;;;;5012683;28;20046;-64
2022/11/23 02:15:12;;;;;;;18.38;8.45;;;5.10;99.90;;;;;;5029269;28;20058;-63
2022/11/23 02:17:42;;;;;;;21.70;8.95;;;5.00;99.90;;;;;;5029052;28;20068;-65
2022/11/23 02:20:13;;;;;;;18.48;9.20;;;5.00;99.90;;;;;;5022767;28;20045;-72
2022/11/23 02:23:03;;;;;;;18.65;8.82;;;5.00;99.90;;;;;;5028704;28;20050;-74
2022/11/23 02:25:44;;;;;;;17.45;8.25;;;5.00;99.90;;;;;;5010952;28;20057;-77
2022/11/23 02:28:27;;;;;;;16.02;7.82;;;5.00;99.90;;;;;;5019792;28;20053;-72
2022/11/23 02:30:55;;;;;;;21.15;8.27;;;5.00;99.90;;;;;;5012755;28;20046;-70
2022/11/23 02:33:24;;;;;;;16.50;7.75;;;4.90;99.90;;;;;;5031645;28;20045;-80
2022/11/23 02:35:55;;;;;;;17.42;7.90;;;4.90;99.90;;;;;;5032375;28;20042;-77
2022/11/23 02:38:30;;;;;;;18.83;7.18;;;4.90;99.90;;;;;;5031054;28;20444;-77
2022/11/23 02:40:59;;;;;;;25.35;7.85;;;4.90;99.90;;;;;;5031421;28;20048;-77
2022/11/23 02:43:27;;;;;;;17.98;8.50;;;4.90;99.90;;;;;;5033021;28;20389;-77
2022/11/23 02:45:56;;;;;;;17.65;8.23;;;4.90;99.90;;;;;;5029487;28;20048;-74
2022/11/23 02:48:25;;;;;;;17.88;7.22;;;4.90;99.90;;;;;;5031966;28;20045;-76
2022/11/23 02:50:52;;;;;;;19.52;8.13;;;4.90;99.90;;;;;;5021920;28;20065;-77
2022/11/23 02:53:20;;;;;;;25.33;8.27;;;5.00;99.90;;;;;;5025214;28;20082;-77
2022/11/23 02:55:47;;;;;;;16.10;7.35;;;5.10;99.90;;;;;;5031438;28;20046;-77
2022/11/23 02:58:17;;;;;;;15.65;7.25;;;5.10;99.90;;;;;;5031479;28;20099;-79
2022/11/23 03:00:46;;;;;;;19.10;8.32;;;5.10;99.90;;;;;;5031476;28;20049;-79
2022/11/23 03:03:17;;;;;;;15.18;7.85;;;5.20;99.90;;;;;;5030173;28;20054;-79
2022/11/23 03:05:44;;;;;;;17.45;8.15;;;5.20;99.90;;;;;;5012929;28;20076;-68
2022/11/23 03:08:12;;;;;;;19.27;8.23;;;5.30;99.90;;;;;;5012974;28;20054;-63
2022/11/23 03:10:40;;;;;;;18.08;7.80;;;5.30;99.90;;;;;;5012879;28;20041;-69
2022/11/23 03:13:08;;;;;;;22.08;9.85;;;5.30;99.90;;;;;;5029206;28;20041;-65
2022/11/23 03:15:38;;;;;;;23.60;10.13;;;5.40;99.90;;;;;;5031018;28;20045;-64
2022/11/23 03:18:06;;;;;;;23.00;9.38;;;5.50;99.90;;;;;;5031435;28;20041;-63
2022/11/23 03:20:34;;;;;;;26.30;10.20;;;5.50;99.90;;;;;;5026541;28;20038;-63
2022/11/23 03:23:02;;;;;;;21.52;9.55;;;5.50;99.90;;;;;;5028168;28;20045;-64
2022/11/23 03:25:30;;;;;;;28.27;10.05;;;5.60;99.90;;;;;;5027850;28;20046;-65
2022/11/23 03:27:58;;;;;;;25.80;9.80;;;5.60;99.90;;;;;;5040544;28;20041;-63
2022/11/23 03:30:26;;;;;;;21.65;9.02;;;5.60;99.90;;;;;;5030697;28;20049;-67
2022/11/23 03:32:54;;;;;;;23.13;9.20;;;5.60;99.90;;;;;;5040868;28;20056;-65
2022/11/23 03:35:23;;;;;;;24.17;10.27;;;5.70;99.90;;;;;;5054659;28;20053;-65
2022/11/23 03:38:14;;;;;;;21.85;8.98;;;5.70;99.90;;;;;;5028982;28;20057;-65
2022/11/23 03:40:46;;;;;;;29.83;9.88;;;5.70;99.90;;;;;;5029364;28;20041;-63
2022/11/23 03:43:20;;;;;;;27.13;10.90;;;5.80;99.90;;;;;;5052004;28;20050;-64
2022/11/23 03:45:48;;;;;;;29.88;9.95;;;5.70;99.90;;;;;;5011011;28;20046;-63
2022/11/23 03:48:15;;;;;;;29.65;10.88;;;5.80;99.90;;;;;;5062807;28;20060;-69
2022/11/23 03:50:44;;;;;;;22.73;9.95;;;5.80;99.90;;;;;;5028874;28;20037;-63
2022/11/23 03:53:12;;;;;;;24.38;10.15;;;5.80;99.90;;;;;;5031628;28;20060;-64
2022/11/23 03:55:39;;;;;;;25.73;11.25;;;5.80;99.90;;;;;;5017520;28;20038;-62
2022/11/23 03:58:07;;;;;;;27.55;11.30;;;5.90;99.90;;;;;;5027058;28;20042;-62
2022/11/23 04:00:36;;;;;;;27.08;11.20;;;5.90;99.90;;;;;;5028714;28;20061;-63
2022/11/23 04:03:03;;;;;;;29.25;11.55;;;5.90;99.90;;;;;;5041112;28;20053;-64
2022/11/23 04:06:09;;;;;;;26.13;10.52;;;6.00;99.90;;;;;;5028253;28;20072;-62
2022/11/23 04:08:49;;;;;;;29.55;11.38;;;5.90;99.90;;;;;;5027522;28;20053;-66
2022/11/23 04:11:28;;;;;;;27.25;10.65;;;5.90;99.90;;;;;;5026223;28;20056;-67
2022/11/23 04:13:56;;;;;;;30.85;11.13;;;6.00;99.90;;;;;;5048408;28;20053;-66
2022/11/23 04:16:24;;;;;;;24.40;9.60;;;6.00;99.90;;;;;;5029578;28;20401;-62
2022/11/23 04:18:51;;;;;;;28.00;11.00;;;6.00;99.90;;;;;;5026257;28;20034;-64
2022/11/23 04:21:19;;;;;;;26.98;11.07;;;6.00;99.90;;;;;;5023502;28;20830;-63
2022/11/23 04:23:47;;;;;;;30.48;11.52;;;6.00;99.90;;;;;;5027748;28;20493;-65
2022/11/23 04:26:15;;;;;;;26.30;9.93;;;6.00;99.90;;;;;;5027596;28;20626;-63
2022/11/23 04:28:45;;;;;;;21.95;9.68;;;6.00;99.90;;;;;;5034266;28;20060;-62
2022/11/23 04:31:13;;;;;;;34.40;10.48;;;6.00;99.90;;;;;;5028970;28;20405;-63
2022/11/23 04:33:56;;;;;;;31.27;10.18;;;6.10;99.90;;;;;;5062256;28;20050;-64
2022/11/23 04:36:26;;;;;;;26.67;10.15;;;6.10;99.90;;;;;;5062484;28;20041;-63
2022/11/23 04:38:54;;;;;;;28.92;11.10;;;6.10;99.90;;;;;;5020809;28;20050;-62
2022/11/23 04:41:31;;;;;;;25.65;8.93;;;6.10;99.90;;;;;;5025508;28;20049;-62
2022/11/23 04:43:59;;;;;;;21.10;9.45;;;6.00;99.90;;;;;;5029325;28;20041;-63
2022/11/23 04:46:27;;;;;;;26.17;10.38;;;6.00;99.90;;;;;;5012291;28;20485;-64
2022/11/23 04:48:55;;;;;;;23.63;9.55;;;6.00;99.90;;;;;;5030091;28;20408;-62
2022/11/23 04:51:22;;;;;;;26.58;8.43;;;6.00;99.90;;;;;;5015129;28;20064;-62
2022/11/23 04:53:51;;;;;;;21.48;8.52;;;6.00;99.90;;;;;;5029917;28;20053;-62
2022/11/23 04:56:19;;;;;;;22.02;9.43;;;6.00;99.90;;;;;;5030075;28;20049;-62
2022/11/23 04:58:48;;;;;;;22.77;8.18;;;6.00;99.90;;;;;;5029540;28;20046;-66
2022/11/23 05:01:16;;;;;;;27.70;7.75;;;6.00;99.90;;;;;;5030260;28;20037;-68
2022/11/23 05:04:04;;;;;;;14.40;6.60;;;6.00;99.90;;;;;;5016259;28;20498;-75
2022/11/23 05:06:31;;;;;;;14.50;5.75;;;6.00;99.90;;;;;;5026685;28;20478;-63
2022/11/23 05:08:59;;;;;;;15.90;5.60;;;6.10;99.90;;;;;;5021997;28;20041;-70
2022/11/23 05:11:56;;;;;;;18.67;9.05;;;6.10;99.90;;;;;;5003615;28;20046;-67
2022/11/23 05:14:24;;;;;;;20.52;8.20;;;6.10;99.90;;;;;;4993919;28;20050;-71
2022/11/23 05:16:52;;;;;;;23.48;8.85;;;6.10;99.90;;;;;;5009958;28;20073;-78
2022/11/23 05:19:20;;;;;;;24.67;8.70;;;6.10;99.90;;;;;;5012736;28;20045;-75
2022/11/23 05:21:48;;;;;;;27.58;8.77;;;6.10;99.90;;;;;;5013319;28;20037;-69
2022/11/23 05:24:15;;;;;;;21.67;9.55;;;6.10;99.90;;;;;;5029583;28;20056;-75
2022/11/23 05:26:55;;;;;;;24.65;8.30;;;6.10;99.90;;;;;;5018701;28;20045;-73
2022/11/23 05:29:23;;;;;;;19.40;8.25;;;6.10;99.90;;;;;;5022558;28;20061;-78
2022/11/23 05:31:53;;;;;;;23.88;7.07;;;6.10;99.90;;;;;;5034623;28;20037;-80
2022/11/23 05:34:21;;;;;;;14.75;7.50;;;6.10;99.90;;;;;;5033126;28;20034;-78
2022/11/23 05:36:49;;;;;;;15.48;5.20;;;6.10;99.90;;;;;;5024774;28;20034;-77
2022/11/23 05:39:18;;;;;;;18.95;6.18;;;6.00;99.90;;;;;;5054157;28;20068;-79
2022/11/23 05:41:49;;;;;;;14.93;4.03;;;6.10;99.90;;;;;;5028674;28;20440;-70
2022/11/23 05:44:32;;;;;;;14.25;4.82;;;6.10;99.90;;;;;;5029192;28;20060;-63
2022/11/23 05:47:00;;;;;;;10.15;4.45;;;6.20;99.90;;;;;;5059782;28;20057;-63
2022/11/23 05:49:31;;;;;;;15.75;5.22;;;6.20;99.90;;;;;;5035408;28;20046;-69
2022/11/23 05:52:01;;;;;;;10.90;4.82;;;6.20;99.90;;;;;;5006626;28;20057;-73
2022/11/23 05:54:30;;;;;;;16.42;4.68;;;6.20;99.90;;;;;;5040635;28;20050;-68
2022/11/23 05:57:16;;;;;;;20.48;6.22;;;6.20;99.90;;;;;;5011265;28;20469;-75
2022/11/23 05:59:45;;;;;;;15.10;4.10;;;6.10;99.90;;;;;;5029603;28;20060;-63
2022/11/23 06:02:19;;;;;;;8.45;4.15;;;6.20;99.90;;;;;;5023149;28;20057;-69
2022/11/23 06:04:50;;;;;;;14.77;4.60;;;6.10;99.90;;;;;;5024143;28;20053;-62
2022/11/23 06:07:26;;;;;;;18.75;3.92;;;6.10;99.90;;;;;;5041906;28;20278;-62
2022/11/23 06:10:08;;;;;;;10.90;3.13;;;6.10;99.90;;;;;;5020024;28;20046;-61
2022/11/23 06:12:39;;;;;;;9.80;4.22;;;6.10;99.90;;;;;;5038213;28;20042;-62
2022/11/23 06:15:12;;;;;;;9.77;3.10;;;6.20;99.90;;;;;;5020041;28;20054;-62
2022/11/23 06:17:40;;;;;;;11.55;3.20;;;6.10;99.90;;;;;;5027213;28;20045;-62
2022/11/23 06:20:14;;;;;;;11.38;3.58;;;6.10;99.90;;;;;;5013951;28;20029;-63
2022/11/23 06:22:52;;;;;;;6.97;3.10;;;6.10;99.90;;;;;;5018739;28;20045;-63
2022/11/23 06:25:22;;;;;;;9.90;3.42;;;6.00;99.90;;;;;;5050460;28;20498;-62
2022/11/23 06:28:03;;;;;;;9.90;3.50;;;6.00;99.90;;;;;;5019516;28;20038;-63
2022/11/23 06:30:39;;;;;;;12.63;3.53;;;6.00;99.90;;;;;;5060283;28;20037;-62
2022/11/23 06:33:08;;;;;;;8.98;2.90;;;6.00;99.90;;;;;;5025956;28;20216;-66
2022/11/23 06:35:55;;;;;;;9.25;3.72;;;6.00;99.90;;;;;;5015928;28;20049;-62
2022/11/23 06:38:27;;;;;;;16.83;4.45;;;6.00;99.90;;;;;;5047508;28;20783;-64
2022/11/23 06:41:01;;;;;;;13.38;3.55;;;5.90;99.90;;;;;;5007492;28;20029;-65
2022/11/23 06:43:30;;;;;;;16.67;3.83;;;5.90;99.90;;;;;;5053566;28;20045;-62
2022/11/23 06:46:03;;;;;;;11.20;3.47;;;5.90;99.90;;;;;;5023327;28;20477;-65
2022/11/23 06:48:33;;;;;;;9.27;3.33;;;5.90;99.90;;;;;;5027456;28;20401;-71
2022/11/23 06:51:01;;;;;;;11.87;4.07;;;6.00;99.90;;;;;;5007813;28;20046;-65
2022/11/23 06:53:31;;;;;;;10.75;3.33;;;5.90;99.90;;;;;;5022703;28;20049;-63
2022/11/23 06:56:03;;;;;;;8.05;2.78;;;6.00;99.90;;;;;;5028149;28;20048;-65
2022/11/23 06:58:32;;;;;;;9.45;3.15;;;6.00;99.90;;;;;;5073813;28;20056;-63
2022/11/23 07:01:05;;;;;;;12.73;4.05;;;6.00;99.90;;;;;;5027096;28;20049;-66
2022/11/23 07:03:40;;;;;;;9.88;3.03;;;6.00;99.90;;;;;;5029111;28;20053;-64
2022/11/23 07:06:19;;;;;;;13.18;2.80;;;6.00;99.90;;;;;;5024554;28;20046;-65
2022/11/23 07:08:49;;;;;;;11.10;3.17;;;6.00;99.90;;;;;;5027023;28;20045;-66
2022/11/23 07:11:43;;;;;;;11.05;3.28;;;;;;;;;;5024412;28;20046;-68
2022/11/23 07:14:11;;;;;;;15.63;2.88;;;6.00;99.90;;;;;;5059249;28;20037;-63
2022/11/23 07:16:42;;;;;;;10.68;2.85;;;6.00;99.90;;;;;;5028444;28;20052;-64
2022/11/23 07:19:10;;;;;;;10.00;3.03;;;6.00;99.90;;;;;;5060154;28;20045;-67
2022/11/23 07:21:37;;;;;;;8.57;2.50;;;6.10;99.90;;;;;;5025915;28;20433;-65
2022/11/23 07:24:06;;;;;;;9.90;2.50;;;6.10;99.90;;;;;;5022092;28;20710;-69
2022/11/23 07:26:34;;;;;;;6.70;3.35;;;6.10;99.90;;;;;;5006779;28;20049;-67
2022/11/23 07:29:02;;;;;;;6.18;2.10;;;6.10;99.90;;;;;;5036362;28;20053;-62
2022/11/23 07:31:30;;;;;;;11.02;3.17;;;6.10;99.90;;;;;;5027980;28;20482;-71
2022/11/23 07:33:58;;;;;;;13.13;2.88;;;6.20;99.90;;;;;;5019604;28;20042;-65
2022/11/23 07:36:26;;;;;;;11.75;2.58;;;6.20;99.90;;;;;;5008942;28;20516;-62
2022/11/23 07:38:53;;;;;;;12.90;2.13;;;6.20;99.90;;;;;;5040611;28;20051;-71
2022/11/23 07:41:22;;;;;;;10.50;2.38;;;6.20;99.90;;;;;;4991583;28;20050;-62
2022/11/23 07:44:25;;;;;;;7.88;2.35;;;6.20;99.90;;;;;;5023234;28;20057;-64
2022/11/23 07:46:53;;;;;;;4.32;2.10;;;6.30;99.90;;;;;;5025075;28;20045;-61
2022/11/23 07:49:23;;;;;;;7.60;2.90;;;6.30;99.90;;;;;;5025223;28;20045;-62
2022/11/23 07:51:52;;;;;;;5.30;2.03;;;6.40;99.90;;;;;;5025420;28;20068;-65
2022/11/23 07:54:22;;;;;;;5.38;1.80;;;6.30;99.90;;;;;;5017891;28;20049;-62
2022/11/23 07:56:50;;;;;;;12.48;3.47;;;6.40;99.90;;;;;;5022015;28;20588;-62
2022/11/23 07:59:17;;;;;;;6.13;2.50;;;6.40;99.90;;;;;;5013780;28;20228;-62
2022/11/23 08:01:45;;;;;;;10.55;2.53;;;6.50;99.90;;;;;;5023656;28;20053;-63
2022/11/23 08:04:19;;;;;;;10.50;2.72;;;6.50;99.90;;;;;;5018895;28;20049;-66
2022/11/23 08:06:47;;;;;;;11.20;3.08;;;6.50;99.90;;;;;;5023822;28;20046;-73
2022/11/23 08:09:15;;;;;;;6.90;2.30;;;6.50;99.90;;;;;;5045550;28;20045;-72
2022/11/23 08:11:42;;;;;;;10.30;3.25;;;6.50;99.90;;;;;;5048280;28;20041;-65
2022/11/23 08:14:10;;;;;;;4.80;2.40;;;6.60;99.90;;;;;;5027822;28;20045;-74
2022/11/23 08:16:40;;;;;;;13.27;3.53;;;6.50;99.90;;;;;;5026845;28;20041;-61
2022/11/23 08:19:08;;;;;;;5.13;3.42;;;6.60;99.90;;;;;;5022331;28;20042;-62
2022/11/23 08:21:36;;;;;;;12.80;3.90;;;6.60;99.90;;;;;;5008362;28;20493;-62
2022/11/23 08:24:03;;;;;;;11.55;4.35;;;6.60;99.90;;;;;;5010716;28;20053;-61
2022/11/23 08:26:31;;;;;;;5.35;3.13;;;6.60;99.90;;;;;;5009897;28;20572;-64
2022/11/23 08:28:58;;;;;;;9.23;3.33;;;6.60;99.90;;;;;;5025667;28;20049;-61
2022/11/23 08:31:26;;;;;;;9.32;3.88;;;6.70;99.90;;;;;;5004811;28;20086;-64
2022/11/23 08:33:54;;;;;;;9.02;3.40;;;6.60;99.90;;;;;;5013371;28;20053;-61
2022/11/23 08:36:29;;;;;;;7.93;4.05;;;6.70;99.90;;;;;;5052571;28;20042;-65
2022/11/23 08:38:57;;;;;;;6.68;4.38;;;6.70;99.90;;;;;;5042604;28;20545;-62
2022/11/23 08:41:25;;;;;;;8.73;4.63;;;;;;;;;;5047646;28;20060;-61
2022/11/23 08:43:52;;;;;;;10.00;3.95;;;6.70;99.90;;;;;;5019191;28;20041;-62
2022/11/23 08:46:20;;;;;;;10.80;3.80;;;6.80;99.90;;;;;;5008004;28;20053;-62
2022/11/23 08:48:47;;;;;;;9.25;3.90;;;6.70;99.90;;;;;;5028355;28;20053;-61
2022/11/23 08:51:21;;;;;;;13.32;3.92;;;6.80;99.90;;;;;;5017471;28;20072;-67
2022/11/23 08:53:49;;;;;;;11.75;4.22;;;6.70;99.90;;;;;;5043105;28;20048;-62
2022/11/23 08:56:17;;;;;;;18.00;4.97;;;6.80;99.90;;;;;;5031849;28;20068;-70
2022/11/23 08:58:45;;;;;;;13.35;5.30;;;6.80;99.90;;;;;;5027146;28;20053;-61
2022/11/23 09:01:14;;;;;;;18.83;4.97;;;6.80;99.90;;;;;;5027256;28;20056;-61
2022/11/23 09:03:43;;;;;;;11.95;4.85;;;6.80;99.90;;;;;;5021515;28;20509;-61
2022/11/23 09:06:11;;;;;;;9.30;4.95;;;6.80;99.90;;;;;;5011756;28;20042;-62
2022/11/23 09:08:39;;;;;;;12.40;3.63;;;6.90;99.90;;;;;;5018854;28;20056;-61
2022/11/23 09:11:09;;;;;;;10.77;4.30;;;6.90;99.90;;;;;;5017185;28;20053;-61
2022/11/23 09:13:37;;;;;;;5.93;3.28;;;6.90;99.90;;;;;;5027373;28;20049;-62
2022/11/23 09:16:06;;;;;;;5.65;2.60;;;7.00;99.90;;;;;;5027433;28;20046;-61
2022/11/23 09:18:35;;;;;;;7.15;2.28;;;7.00;99.90;;;;;;5038563;28;20048;-61
2022/11/23 09:21:04;;;;;;;4.68;1.92;;;7.00;99.90;;;;;;5016617;28;20049;-70
2022/11/23 09:23:33;;;;;;;4.90;2.00;;;7.00;99.90;;;;;;5026976;28;20068;-62
2022/11/23 09:26:04;;;;;;;4.75;1.58;;;7.10;99.90;;;;;;5026213;28;20299;-63
2022/11/23 09:28:32;;;;;;;7.50;2.20;;;7.10;99.90;;;;;;5037122;28;20052;-61
2022/11/23 09:31:03;;;;;;;4.53;1.42;;;7.10;99.90;;;;;;5024369;28;20049;-61
2022/11/23 09:33:30;;;;;;;4.30;0.95;;;7.30;99.90;;;;;;5024129;28;20484;-61
2022/11/23 09:35:59;;;;;;;1.00;0.68;;;7.20;99.90;;;;;;5013256;28;20041;-61
2022/11/23 09:38:27;;;;;;;3.03;0.67;;;7.30;99.90;;;;;;5031853;28;20071;-62
2022/11/23 09:41:52;;;;;;;4.88;0.63;;;7.30;99.90;;;;;;5039632;28;20042;-62
2022/11/23 09:44:51;;;;;;;4.32;0.68;;;7.40;99.90;;;;;;5030788;28;20049;-68
2022/11/23 09:47:56;;;;;;;1.73;0.60;;;7.50;99.90;;;;;;5031472;28;20064;-62
2022/11/23 09:50:28;;;;;;;5.53;0.68;;;7.60;99.90;;;;;;5026970;28;20049;-62
2022/11/23 09:53:04;;;;;;;9.27;0.82;;;7.70;99.90;;;;;;5030682;28;20053;-62
2022/11/23 09:55:42;;;;;;;5.18;0.88;;;7.80;99.90;;;;;;5028624;28;20049;-62
2022/11/23 09:58:21;;;;;;;5.38;0.73;;;7.80;99.90;;;;;;5034721;28;20514;-65
2022/11/23 10:01:06;;;;;;;6.07;2.15;;;7.90;99.90;;;;;;5026166;28;20048;-61
2022/11/23 10:03:40;;;;;;;5.82;1.27;;;8.00;99.90;;;;;;5017123;28;20421;-61
2022/11/23 10:06:30;;;;;;;4.82;0.55;;;8.10;99.90;;;;;;5020600;28;20461;-63
2022/11/23 10:09:26;;;;;;;6.60;1.10;;;8.10;99.90;;;;;;5029014;28;20401;-62
2022/11/23 10:12:34;;;;;;;4.57;0.55;;;8.20;99.90;;;;;;5028524;28;20041;-61
2022/11/23 10:15:19;;;;;;;8.20;0.90;;;8.30;99.90;;;;;;5030219;28;20402;-61
2022/11/23 10:18:08;;;;;;;8.00;0.70;;;8.40;99.90;;;;;;5035254;28;20041;-61
2022/11/23 10:20:58;;;;;;;6.85;0.60;;;8.40;99.90;;;;;;5030664;28;20049;-62
2022/11/23 10:23:54;;;;;;;4.80;0.80;;;8.50;99.90;;;;;;5029095;28;20042;-77
2022/11/23 10:26:38;;;;;;;6.35;0.75;;;8.50;99.90;;;;;;5030494;28;20630;-78
2022/11/23 10:29:24;;;;;;;7.10;0.77;;;8.50;99.90;;;;;;5030764;28;20053;-72
2022/11/23 10:31:52;;;;;;;12.93;1.60;;;8.50;99.90;;;;;;5029416;28;20045;-68
2022/11/23 10:34:55;;;;;;;8.02;0.70;;;8.60;99.90;;;;;;5047820;28;20396;-78
2022/11/23 10:37:23;;;;;;;9.00;0.90;;;8.60;99.90;;;;;;5031697;28;20037;-79
2022/11/23 10:39:50;;;;;;;13.13;0.73;;;8.70;99.90;;;;;;5048977;28;20645;-72
2022/11/23 10:42:41;;;;;;;13.65;1.67;;;8.60;99.90;;;;;;5027673;28;20052;-84
2022/11/23 10:45:20;;;;;;;9.45;1.67;;;8.80;99.90;;;;;;5009260;28;20045;-74
2022/11/23 10:47:54;;;;;;;11.95;1.27;;;8.80;99.90;;;;;;5019763;28;20052;-62
2022/11/23 10:50:31;;;;;;;7.05;1.70;;;8.90;99.90;;;;;;5030484;28;20045;-61
2022/11/23 10:53:17;;;;;;;7.72;0.85;;;9.00;99.90;;;;;;5026189;28;20496;-61
2022/11/23 10:55:52;;;;;;;7.80;2.03;;;9.10;99.90;;;;;;5010500;28;20068;-61
2022/11/23 10:58:27;;;;;;;9.35;1.30;;;9.20;99.90;;;;;;5018786;28;20069;-61
2022/11/23 11:01:00;;;;;;;4.15;0.70;;;9.30;99.90;;;;;;5028353;28;20049;-61
2022/11/23 11:03:32;;;;;;;10.85;1.70;;;9.40;99.90;;;;;;5040979;28;20045;-61
2022/11/23 11:06:00;;;;;;;17.63;1.73;;;9.50;99.90;;;;;;5029254;28;20038;-61
2022/11/23 11:08:59;;;;;;;9.63;1.17;;;9.80;99.90;;;;;;5040549;28;20052;-62
2022/11/23 11:11:32;;;;;;;11.43;1.10;;;9.80;99.90;;;;;;5049274;28;20392;-61
2022/11/23 11:14:06;;;;;;;6.03;1.08;;;10.00;99.90;;;;;;5032136;28;20045;-61
2022/11/23 11:16:36;;;;;;;13.90;1.67;;;10.30;99.90;;;;;;5028390;28;20057;-62
2022/11/23 11:19:21;;;;;;;12.73;2.65;;;10.30;99.90;;;;;;5042948;28;20500;-61
2022/11/23 11:21:49;;;;;;;8.55;1.90;;;10.40;99.90;;;;;;5010934;28;20050;-62
2022/11/23 11:24:31;;;;;;;11.88;2.45;;;10.60;99.90;;;;;;5026887;28;20405;-61
2022/11/23 11:27:03;;;;;;;11.95;2.35;;;10.70;99.90;;;;;;5028167;28;20041;-67
2022/11/23 11:29:38;;;;;;;16.05;1.70;;;10.90;99.90;;;;;;5033204;28;20049;-61
2022/11/23 11:32:24;;;;;;;10.00;1.10;;;11.10;99.90;;;;;;5030756;28;20056;-60
2022/11/23 11:35:26;;;;;;;10.88;1.90;;;11.30;99.90;;;;;;5026713;28;20038;-60
2022/11/23 11:37:59;;;;;;;18.80;1.90;;;11.70;99.90;;;;;;5014064;28;20079;-60
2022/11/23 11:40:38;;;;;;;8.40;0.90;;;11.80;99.90;;;;;;5026903;28;20045;-60
2022/11/23 11:43:36;;;;;;;16.13;3.08;;;11.90;99.90;;;;;;5017932;28;20045;-60
2022/11/23 11:46:21;;;;;;;12.25;2.20;;;12.10;99.90;;;;;;5028460;28;20056;-60
2022/11/23 11:49:08;;;;;;;13.82;2.38;;;12.40;99.90;;;;;;5028428;28;20048;-60
2022/11/23 11:51:47;;;;;;;12.65;1.52;;;12.60;99.90;;;;;;5021453;28;20040;-60
2022/11/23 11:54:35;;;;;;;14.80;2.13;;;12.80;99.90;;;;;;5028136;28;20053;-61
2022/11/23 11:57:31;;;;;;;6.38;1.30;;;13.00;99.90;;;;;;5028944;28;20493;-61
2022/11/23 12:00:02;;;;;;;7.65;1.40;;;13.00;99.90;;;;;;5035756;28;20043;-61
2022/11/23 12:02:34;;;;;;;14.20;1.60;;;13.00;99.90;;;;;;5016302;28;20064;-60
2022/11/23 12:05:14;;;;;;;11.15;1.58;;;13.10;99.90;;;;;;5026368;28;20521;-60
2022/11/23 12:07:59;;;;;;;14.98;4.32;;;13.20;99.90;;;;;;5011949;28;20060;-61
2022/11/23 12:10:43;;;;;;;16.80;2.45;;;13.50;99.90;;;;;;5022133;28;20050;-59
2022/11/23 12:13:34;;;;;;;11.65;2.05;;;13.50;99.90;;;;;;5018074;28;20049;-61
2022/11/23 12:16:19;;;;;;;10.82;1.50;;;13.30;99.90;;;;;;5022594;28;20042;-62
2022/11/23 12:19:08;;;;;;;10.30;1.67;;;12.70;99.90;;;;;;5020483;28;20041;-60
2022/11/23 12:21:36;;;;;;;8.20;1.13;;;12.60;99.90;;;;;;5013870;28;20058;-61
2022/11/23 12:24:12;;;;;;;14.82;2.33;;;12.30;99.90;;;;;;5025108;28;20061;-63
2022/11/23 12:26:54;;;;;;;8.98;2.13;;;12.10;99.90;;;;;;5027210;28;20042;-62
2022/11/23 12:29:40;;;;;;;9.65;1.05;;;12.00;99.90;;;;;;5043824;28;20583;-63
2022/11/23 12:32:21;;;;;;;8.98;1.30;;;12.00;99.90;;;;;;5046713;28;20637;-63
2022/11/23 12:35:17;;;;;;;11.50;1.98;;;12.20;99.90;;;;;;5027285;28;20068;-62
2022/11/23 12:38:14;;;;;;;10.45;1.50;;;12.20;99.90;;;;;;5010934;28;20052;-62
2022/11/23 12:41:07;;;;;;;12.57;1.42;;;12.20;99.90;;;;;;5024150;28;20416;-61
2022/11/23 12:44:00;;;;;;;12.10;1.70;;;12.30;99.90;;;;;;5027831;28;20409;-66
2022/11/23 12:46:34;;;;;;;15.52;1.55;;;12.30;99.90;;;;;;5018294;28;20064;-63
2022/11/23 12:49:17;;;;;;;15.50;1.92;;;12.20;99.90;;;;;;5033333;28;20045;-61
2022/11/23 12:52:00;;;;;;;16.60;1.50;;;12.00;99.90;;;;;;5015968;28;20053;-64
2022/11/23 12:54:40;;;;;;;11.57;2.15;;;11.80;99.90;;;;;;5027310;28;20041;-62
2022/11/23 12:57:22;;;;;;;5.82;1.20;;;11.60;99.90;;;;;;5026722;28;20385;-59
2022/11/23 13:00:11;;;;;;;7.30;1.35;;;11.40;99.90;;;;;;5034213;28;20052;-62
2022/11/23 13:02:54;;;;;;;2.97;0.88;;;11.20;99.90;;;;;;5047199;28;20060;-62
2022/11/23 13:05:46;;;;;;;1.75;0.40;;;10.80;99.90;;;;;;5047055;28;20397;-77
2022/11/23 13:08:49;;;;;;;5.88;0.60;;;10.40;99.90;;;;;;5026960;28;20044;-76
2022/11/23 13:11:27;;;;;;;3.38;1.20;;;10.00;99.90;;;;;;5051955;28;20045;-77
2022/11/23 13:14:03;;;;;;;5.38;0.70;;;9.50;99.90;;;;;;5036269;28;20052;-78
2022/11/23 13:16:41;;;;;;;10.05;0.75;;;8.80;99.90;;;;;;5027190;28;20056;-65
2022/11/23 13:19:24;;;;;;;6.05;0.70;;;8.80;99.90;;;;;;5043056;28;20048;-67
2022/11/23 13:21:52;;;;;;;6.57;1.10;;;8.50;99.90;;;;;;5025329;28;20050;-62
2022/11/23 13:24:31;;;;;;;6.68;1.08;;;8.30;99.90;;;;;;5028992;28;20045;-62